Weather observations for the past three days for
Laurens County Airport
Imperial (Metric)
Date Time (edt) Wind (mph) Vis. (mi.) Weather Sky Cond. Temperature (ºF) Relative Humidity Wind Chill (°F) Heat Index (°F) Pressure Precipitation (in)
Air Dwpt 6 hour altimeter (in) sea level (mb) 1 hr 3 hr 6 hr
Max. Min.
04 17:15 SW 5 10.00 Fair CLR 77 41 28% 78 29.96 0.0
04 16:55 SW 6 10.00 Fair CLR 77 41 28% 78 29.96 0.0
04 16:35 S 8 10.00 Fair CLR 77 39.2 26% 77 29.96 0.0
04 16:15 S 5 10.00 Fair CLR 77 37.4 24% 77 29.97 0.0
04 15:55 S 3 10.00 Fair CLR 77 42.8 30% 78 29.98 0.0
04 15:35 SW 5 10.00 Fair CLR 77 39.2 26% 77 29.99 0.0
04 15:15 Calm 10.00 Fair CLR 75.2 37.4 25% 77 30 0.0
04 14:55 SW 8 10.00 Fair CLR 75.2 37.4 25% 77 30 0.0
04 14:35 SW 5 10.00 Fair CLR 73.4 41 31% 30.01 0.0
04 14:15 S 6 10.00 Fair CLR 73.4 39.2 29% 30.01 0.0
04 13:55 SW 5 10.00 Fair CLR 73.4 39.2 29% 30.02 0.0
04 13:35 S 3 10.00 Fair CLR 71.6 41 33% 30.03 0.0
04 13:15 SW 5 10.00 Fair CLR 71.6 39.2 31% 30.03 0.0
04 12:55 Calm 10.00 Fair CLR 71.6 42.8 36% 30.04 0.0
04 12:35 Calm 10.00 Fair CLR 69.8 41 35% 30.05 0.0
04 12:15 NW 3 10.00 Fair CLR 69.8 42.8 38% 30.05 0.0
04 11:55 Calm 10.00 Fair CLR 68 41 38% 30.06 0.0
04 11:35 Calm 10.00 Fair CLR 68 42.8 40% 30.06 0.0
04 11:15 Calm 10.00 Fair CLR 68 42.8 40% 30.06 0.0
04 10:55 Calm 10.00 Fair CLR 66.2 42.8 43% 30.06 0.0
04 10:35 SW 3 10.00 Fair CLR 64.4 42.8 46% 30.06 0.0
04 10:15 W 5 10.00 Fair CLR 62.6 44.6 52% 30.07 0.0
04 09:55 Calm 10.00 Fair CLR 60.8 44.6 55% 30.07 0.0
04 09:35 Calm 10.00 Fair CLR 59 44.6 59% 30.07 0.0
04 09:15 SW 5 10.00 Fair CLR 55.4 44.6 67% 30.06 0.0
04 08:55 Calm 10.00 Fair CLR 53.6 44.6 72% 30.05 0.0
04 08:35 SW 5 10.00 Fair CLR 51.8 42.8 72% 30.05 0.0
04 08:15 Calm 10.00 Fair CLR 50 42.8 76% 30.05 0.0
04 07:55 SW 5 10.00 Fair CLR 50 42.8 76% 49 30.05 0.0
04 07:35 SW 3 10.00 Fair CLR 46.4 42.8 87% 30.05 0.0
04 07:15 SW 5 10.00 Fair CLR 46.4 41 82% 45 30.05 0.0
04 06:55 SW 5 10.00 Fair CLR 44.6 41 87% 43 30.04 0.0
04 06:35 Calm 10.00 Fair CLR 44.6 41 87% 30.04 0.0
04 06:15 Calm 10.00 Fair CLR 44.6 42.8 93% 30.05 0.0
04 05:55 Calm 10.00 Fair CLR 44.6 42.8 93% 30.05 0.0
04 05:35 SW 3 10.00 Fair CLR 46.4 42.8 87% 30.04 0.0
04 05:15 Calm 10.00 Fair CLR 44.6 42.8 93% 30.05 0.0
04 04:55 Calm 10.00 Fair CLR 46.4 42.8 87% 30.04 0.0
04 04:35 SW 3 10.00 Fair CLR 46.4 42.8 87% 30.04 0.0
04 04:15 SW 3 10.00 Fair CLR 48.2 41 76% 30.04 0.0
04 03:55 SW 3 10.00 Fair CLR 48.2 42.8 82% 30.04 0.0
04 03:35 Calm 10.00 Fair CLR 46.4 42.8 87% 30.04 0.0
04 03:15 Calm 10.00 Fair CLR 46.4 42.8 87% 30.03 0.0
04 02:55 Calm 10.00 Fair CLR 48.2 42.8 82% 30.04 0.0
04 02:35 Calm 10.00 Fair CLR 50 42.8 76% 30.04 0.0
04 02:15 Calm 10.00 Fair CLR 50 42.8 76% 30.05 0.0
04 01:55 Calm 10.00 Fair CLR 51.8 42.8 72% 30.04 0.0
04 01:35 S 5 10.00 Fair CLR 50 42.8 76% 49 30.04 0.0
04 01:15 Calm 10.00 Fair CLR 50 42.8 76% 30.05 0.0
04 00:55 Calm 10.00 Fair CLR 50 42.8 76% 30.05 0.0
04 00:35 Calm 10.00 Fair CLR 51.8 42.8 72% 30.06 0.0
04 00:15 SW 3 10.00 Fair CLR 53.6 42.8 67% 30.05 0.0
03 23:55 Calm 10.00 Fair CLR 53.6 42.8 67% 30.05 0.0
03 23:35 S 3 10.00 Fair CLR 55.4 42.8 63% 30.05 0.0
03 23:15 S 5 10.00 Fair CLR 55.4 41 59% 30.05 0.0
03 22:55 Calm 10.00 Fair CLR 55.4 41 59% 30.05 0.0
03 22:35 S 5 10.00 Fair CLR 57.2 42.8 59% 30.05 0.0
03 22:15 S 3 10.00 Fair CLR 57.2 42.8 59% 30.04 0.0
03 21:55 Calm 10.00 Fair CLR 55.4 44.6 67% 30.03 0.0
03 21:35 Calm 10.00 Fair CLR 55.4 44.6 67% 30.03 0.0
03 21:15 Calm 10.00 Fair CLR 59 44.6 59% 30.03 0.0
03 20:55 Calm 10.00 Fair CLR 60.8 42.8 52% 30.02 0.0
03 20:35 Calm 10.00 Fair CLR 59 44.6 59% 30.02 0.0
03 20:15 Calm 10.00 Fair CLR 60.8 44.6 55% 30.02 0.0
03 19:55 Calm 10.00 Fair CLR 62.6 42.8 49% 30.02 0.0
03 19:35 S 3 10.00 Fair CLR 64.4 41 43% 30.02 0.0
03 19:15 S 5 10.00 Fair CLR 66.2 39.2 37% 30.02 0.0
03 18:55 SW 6 10.00 Fair CLR 68 39.2 35% 30.02 0.0
03 18:35 SW 3 10.00 Fair CLR 68 37.4 33% 30.02 0.0
03 18:15 W 5 10.00 Fair CLR 68 39.2 35% 30.02 0.0
03 17:55 SW 7 10.00 Fair CLR 68 39.2 35% 30.02 0.0
03 17:35 SW 7 10.00 Fair CLR 68 39.2 35% 30.03 0.0
03 17:15 Calm 10.00 Fair CLR 68 39.2 35% 30.03 0.0
03 16:55 SW 7 10.00 Fair CLR 68 39.2 35% 30.03 0.0
03 16:35 NW 7 10.00 Fair CLR 68 37.4 33% 30.04 0.0
03 16:15 SW 7 10.00 Fair CLR 68 39.2 35% 30.05 0.0
03 15:55 W 3 10.00 Fair CLR 68 39.2 35% 30.06 0.0
03 15:35 SW 6 10.00 Fair CLR 66.2 41 40% 30.08 0.0
03 15:15 SW 5 10.00 Fair CLR 66.2 39.2 37% 30.08 0.0
03 14:55 Calm 10.00 Fair CLR 64.4 37.4 37% 30.09 0.0
03 14:35 S 7 10.00 Partly Cloudy SCT055 64.4 39.2 40% 30.09 0.0
03 14:15 SE 7 10.00 Partly Cloudy SCT055 64.4 39.2 40% 30.1 0.0
03 13:55 SW 7 10.00 Fair CLR 62.6 37.4 39% 30.1 0.0
03 13:35 S 6 10.00 Fair CLR 64.4 37.4 37% 30.1 0.0
03 13:15 Calm 10.00 Fair CLR 62.6 37.4 39% 30.12 0.0
03 12:55 Calm 10.00 Fair CLR 62.6 37.4 39% 30.13 0.0
03 12:35 Calm 10.00 Partly Cloudy SCT055 62.6 37.4 39% 30.14 0.0
03 12:15 S 7 10.00 Fair CLR 60.8 37.4 42% 30.14 0.0
03 11:55 Calm 10.00 Fair CLR 59 35.6 42% 30.15 0.0
03 11:35 Calm 10.00 Fair CLR 60.8 37.4 42% 30.15 0.0
03 11:15 NW 5 10.00 Fair CLR 59 37.4 45% 30.15 0.0
03 10:55 Calm 10.00 Fair CLR 59 37.4 45% 30.15 0.0
03 10:35 Calm 10.00 Fair CLR 59 35.6 42% 30.15 0.0
03 10:15 Calm 10.00 Fair CLR 57.2 37.4 48% 30.15 0.0
03 09:55 N 3 10.00 Fair CLR 55.4 41 59% 30.14 0.0
03 09:35 Calm 10.00 Fair CLR 53.6 39.2 58% 30.14 0.0
03 09:15 N 3 10.00 Fair CLR 53.6 41 63% 30.14 0.0
03 08:55 Calm 10.00 Fair CLR 51.8 41 67% 30.14 0.0
03 08:35 N 3 10.00 Fair CLR 50 41 71% 30.14 0.0
03 08:15 Calm 10.00 Fair CLR 48.2 41 76% 30.13 0.0
03 07:55 Calm 10.00 Fair CLR 44.6 41 87% 30.12 0.0
03 07:35 Calm 10.00 Fair CLR 42.8 41 93% 30.12 0.0
03 07:15 Calm 10.00 Fair CLR 41 39.2 93% 30.11 0.0
03 06:55 N 3 10.00 Fair CLR 39.2 37.4 93% 30.1 0.0
03 06:35 N 5 10.00 Fair CLR 39.2 37.4 93% 36 30.09 0.0
03 06:15 Calm 10.00 Fair CLR 39.2 37.4 93% 30.08 0.0
03 05:55 Calm 10.00 Fair CLR 41 39.2 93% 30.07 0.0
03 05:35 N 3 10.00 Fair CLR 39.2 39.2 100% 30.07 0.0
03 05:15 Calm 10.00 Fair CLR 41 39.2 93% 30.07 0.0
03 04:55 Calm 10.00 Fair CLR 41 39.2 93% 30.06 0.0
03 04:35 Calm 10.00 Fair CLR 42.8 41 93% 30.05 0.0
03 04:15 Calm 10.00 Fair CLR 41 41 100% 30.05 0.0
03 03:55 Calm 10.00 Fair CLR 42.8 41 93% 30.05 0.0
03 03:35 Calm 10.00 Fair CLR 42.8 42.8 100% 30.04 0.0
03 03:15 Calm 10.00 Fair CLR 42.8 42.8 100% 30.03 0.0
03 02:55 Calm 10.00 Fair CLR 44.6 42.8 93% 30.03 0.0
03 02:35 Calm 10.00 Fair CLR 44.6 44.6 100% 30.03 0.0
03 02:15 Calm 10.00 Fair CLR 46.4 44.6 93% 30.02 0.0
03 01:55 Calm 10.00 Fair CLR 46.4 46.4 100% 30.02 0.0
03 01:35 Calm 10.00 Fair CLR 46.4 46.4 100% 30.03 0.0
03 01:15 Calm 10.00 Fair CLR 46.4 46.4 100% 30.03 0.0
03 00:55 Calm 10.00 Fair CLR 50 48.2 94% 30.02 0.0
03 00:35 Calm 10.00 Fair CLR 50 50 100% 30.02 0.0
03 00:15 SW 3 10.00 Fair CLR 50 50 100% 30.01 0.0
02 23:55 Calm 10.00 Fair CLR 50 50 100% 30.01 0.0
02 23:35 Calm 10.00 Partly Cloudy SCT090 51.8 50 94% 30 0.0
02 23:15 Calm 10.00 Partly Cloudy SCT090 51.8 50 94% 30 0.0
02 22:55 Calm 10.00 Mostly Cloudy BKN090 53.6 50 88% 30 0.0
02 22:35 Calm 10.00 Overcast OVC090 53.6 50 88% 29.99 0.0
02 22:15 Calm 10.00 Overcast OVC090 53.6 50 88% 29.97 0.0
02 21:55 Calm 10.00 Overcast OVC100 53.6 50 88% 29.97 0.0
02 21:35 Calm 10.00 Overcast OVC100 55.4 51.8 88% 29.96 0.0
02 21:15 Calm 10.00 Overcast BKN090 OVC110 55.4 51.8 88% 29.95 0.0
02 20:55 Calm 10.00 Overcast SCT070 OVC090 55.4 51.8 88% 29.93 0.0
02 20:35 Calm 10.00 Light Rain OVC070 55.4 51.8 88% 29.93 0.0
02 20:15 Calm 10.00 Overcast SCT060 BKN070 OVC120 57.2 50 77% 29.92 0.0
02 19:55 Calm 10.00 Mostly Cloudy BKN100 BKN120 57.2 51.8 82% 29.91 0.0
02 19:35 Calm 10.00 Mostly Cloudy SCT070 BKN110 59 50 72% 29.9 0.0
02 19:15 Calm 10.00 Mostly Cloudy BKN070 60.8 46.4 59% 29.89 0.0
02 18:55 Calm 10.00 Mostly Cloudy BKN060 BKN075 60.8 46.4 59% 29.89 0.0
02 18:35 Calm 10.00 Partly Cloudy SCT060 SCT075 62.6 44.6 52% 29.89 0.0
02 18:15 SE 3 10.00 Mostly Cloudy BKN060 BKN075 62.6 44.6 52% 29.89 0.0
02 17:55 E 5 10.00 Overcast SCT047 OVC050 60.8 44.6 55% 29.89 0.0
02 17:35 Calm 10.00 Overcast SCT043 BKN048 OVC050 60.8 46.4 59% 29.88 0.0
02 17:15 Calm 10.00 Overcast SCT041 OVC050 62.6 46.4 56% 29.88 0.0
02 16:55 Calm 10.00 Overcast BKN041 OVC050 62.6 44.6 52% 29.88 0.0
02 16:35 Calm 10.00 Mostly Cloudy SCT039 BKN046 62.6 44.6 52% 29.88 0.0
02 16:15 E 6 10.00 Partly Cloudy SCT039 SCT050 62.6 44.6 52% 29.88 0.0
02 15:55 Calm 10.00 Overcast SCT039 OVC050 62.6 44.6 52% 29.89 0.0
02 15:35 N 3 10.00 Mostly Cloudy SCT034 BKN048 62.6 46.4 56% 29.9 0.0
02 15:15 NE 7 10.00 Partly Cloudy SCT032 SCT046 62.6 44.6 52% 29.9 0.0
02 14:55 Calm 10.00 Partly Cloudy SCT029 60.8 46.4 59% 29.91 0.0
02 14:35 E 6 10.00 Partly Cloudy SCT027 59 46.4 63% 29.92 0.0
02 14:15 NE 3 10.00 Partly Cloudy SCT120 59 46.4 63% 29.92 0.0
02 13:55 Calm 10.00 Overcast OVC120 59 46.4 63% 29.92 0.0
02 13:15 NE 7 10.00 Overcast SCT041 SCT055 OVC110 57.2 46.4 67% 29.92 0.0
02 12:55 E 3 10.00 Mostly Cloudy BKN039 BKN055 57.2 48.2 72% 29.93 0.0
02 12:35 NE 3 10.00 Overcast OVC039 55.4 48.2 77% 29.94 0.0
02 12:15 NE 7 10.00 Overcast OVC035 55.4 50 82% 29.94 0.0
02 11:55 NE 3 10.00 Overcast OVC033 55.4 50 82% 29.95 0.0
02 11:35 NE 7 10.00 Overcast OVC031 55.4 50 82% 29.94 0.0
02 11:15 NE 6 G 17 10.00 Overcast OVC029 53.6 50 88% 29.94 0.0
02 10:55 NE 8 G 17 10.00 Mostly Cloudy BKN027 BKN037 BKN043 55.4 51.8 88% 29.92 0.0
02 10:35 NE 7 10.00 Overcast SCT008 BKN030 OVC043 55.4 53.6 94% 29.93 0.0
02 10:15 NE 5 7.00 Light Rain BKN006 BKN012 OVC019 55.4 53.6 94% 29.93 0.0
02 09:55 N 3 7.00 Overcast BKN008 OVC015 55.4 55.4 100% 29.93 0.0
02 09:35 NE 5 7.00 Overcast OVC006 55.4 55.4 100% 29.9 0.0
02 09:15 Calm 5.00 Fog/Mist SCT004 BKN029 BKN120 57.2 55.4 94% 29.91 0.0
02 08:55 Calm 5.00 Fog/Mist SCT002 SCT027 SCT085 55.4 55.4 100% 29.9 0.0 0.01
02 08:35 Calm 5.00 Light Drizzle SCT002 SCT047 BKN090 55.4 55.4 100% 29.91 0.0
02 08:15 Calm 5.00 Light Drizzle BKN090 55.4 55.4 100% 29.91 0.0
02 07:55 Calm 4.00 Light Rain SCT046 BKN090 55.4 55.4 100% 29.91 0.0 0.02
02 07:35 Calm 3.00 Light Rain SCT042 SCT050 BKN075 55.4 53.6 94% 29.89 0.0 0.02
02 07:15 Calm 2.50 Light Rain OVC075 55.4 53.6 94% 29.88 0.0 0.01
02 06:55 Calm 4.00 Light Rain OVC080 53.6 53.6 100% 29.87 0.0 0.01
02 06:35 Calm 5.00 Light Drizzle OVC090 55.4 53.6 94% 29.85 0.0 0.01
02 06:15 Calm 4.00 Light Rain OVC090 55.4 53.6 94% 29.85 0.0
02 05:55 Calm 3.00 Fog/Mist SCT048 BKN090 OVC110 55.4 53.6 94% 29.87 0.0 0.01
02 05:35 Calm 4.00 Light Rain SCT050 OVC080 55.4 53.6 94% 29.88 0.0 0.01
02 05:15 Calm 7.00 Light Rain OVC080 55.4 53.6 94% 29.89 0.0 0.01
02 04:55 Calm 7.00 Light Rain OVC070 55.4 53.6 94% 29.9 0.0 0.02
02 04:35 Calm 7.00 Light Rain OVC070 55.4 55.4 100% 29.9 0.0 0.01
02 04:15 Calm 10.00 Light Rain OVC070 55.4 53.6 94% 29.9 0.0
02 03:55 Calm 10.00 Light Rain OVC070 57.2 53.6 88% 29.9 0.0
02 03:35 Calm 10.00 Light Rain BKN070 OVC090 57.2 51.8 82% 29.9 0.0
02 03:15 Calm 10.00 Overcast OVC090 57.2 51.8 82% 29.89 0.0
02 02:55 Calm 10.00 Overcast OVC100 57.2 53.6 88% 29.88 0.0
02 02:35 Calm 10.00 Overcast OVC110 59 51.8 77% 29.88 0.0
02 02:15 Calm 10.00 Overcast OVC110 57.2 53.6 88% 29.89 0.0
02 01:55 Calm 10.00 Overcast OVC110 57.2 51.8 82% 29.89 0.0
02 01:35 Calm 10.00 Mostly Cloudy BKN110 57.2 53.6 88% 29.9 0.0
02 01:15 Calm 10.00 Partly Cloudy SCT110 55.4 53.6 94% 29.91 0.0
02 00:55 Calm 10.00 Fair CLR 55.4 53.6 94% 29.91 0.0
02 00:35 Calm 10.00 Fair CLR 55.4 53.6 94% 29.91 0.0
02 00:15 Calm 10.00 Fair CLR 57.2 53.6 88% 29.92 0.0
01 23:55 Calm 10.00 Fair CLR 57.2 53.6 88% 29.92 0.0
01 23:35 Calm 10.00 Fair CLR 57.2 53.6 88% 29.92 0.0
01 23:15 Calm 10.00 Fair CLR 55.4 53.6 94% 29.92 0.0
01 22:55 Calm 10.00 Fair CLR 55.4 53.6 94% 29.92 0.0
01 22:35 Calm 10.00 Fair CLR 55.4 53.6 94% 29.92 0.0
01 22:15 Calm 10.00 Fair CLR 57.2 53.6 88% 29.92 0.0
01 21:55 Calm 10.00 Fair CLR 57.2 53.6 88% 29.92 0.0
01 21:15 Calm 10.00 Fair CLR 59 53.6 82% 29.92 0.0
01 20:55 Calm 10.00 Fair CLR 60.8 53.6 77% 29.91 0.0
01 20:35 Calm 10.00 Fair CLR 60.8 53.6 77% 29.9 0.0
01 20:15 Calm 10.00 Fair CLR 60.8 51.8 72% 29.9 0.0
01 19:55 Calm 10.00 Fair CLR 62.6 51.8 68% 29.89 0.0
01 19:35 Calm 10.00 Fair CLR 62.6 51.8 68% 29.89 0.0
01 19:15 SE 6 10.00 Fair CLR 64.4 51.8 64% 29.88 0.0
01 18:55 Calm 10.00 Fair CLR 64.4 50 60% 29.88 0.0
01 18:35 Calm 10.00 Fair CLR 64.4 50 60% 29.89 0.0
01 18:15 Calm 10.00 Fair CLR 64.4 50 60% 29.89 0.0
01 17:55 Calm 10.00 Fair CLR 64.4 50 60% 29.9 0.0
Date Time (edt) Wind (mph) Vis. (mi.) Weather Sky Cond. Air Dwpt Max. Min. Relative Humidity Wind Chill (°F) Heat Index (°F) altimeter (in) sea level (mb) 1 hr 3 hr 6 hr
6 hour
Temperature (ºF) Pressure Precipitation (in)